createdAt,value
2022-07-27T00:05:52.823Z,10.10
2022-07-27T00:15:58.251Z,9.10
2022-07-27T00:26:04.795Z,8.50
2022-07-27T00:36:17.346Z,7.00
2022-07-27T00:46:29.288Z,6.70
2022-07-27T00:56:32.593Z,6.00
2022-07-27T01:06:36.842Z,5.40
2022-07-27T01:16:40.603Z,5.00
2022-07-27T01:26:55.894Z,4.10
2022-07-27T01:37:05.270Z,4.30
2022-07-27T01:47:14.236Z,4.30
2022-07-27T01:57:18.347Z,3.40
2022-07-27T02:07:30.214Z,3.00
2022-07-27T02:17:38.859Z,2.80
2022-07-27T02:27:45.853Z,2.90
2022-07-27T02:37:51.909Z,2.70
2022-07-27T02:47:55.113Z,2.50
2022-07-27T02:57:58.241Z,2.50
2022-07-27T03:08:01.735Z,2.10
2022-07-27T03:18:04.954Z,2.30
2022-07-27T03:28:08.078Z,1.90
2022-07-27T03:48:57.992Z,1.90
2022-07-27T03:59:01.724Z,1.70
2022-07-27T04:09:08.506Z,1.70
2022-07-27T04:19:21.304Z,1.90
2022-07-27T04:29:28.718Z,1.70
2022-07-27T04:39:32.283Z,1.80
2022-07-27T04:49:36.334Z,1.90
2022-07-27T05:00:50.558Z,1.90
2022-07-27T05:11:04.427Z,1.70
2022-07-27T05:21:25.587Z,1.60
2022-07-27T05:31:41.395Z,1.70
2022-07-27T05:41:48.906Z,1.30
2022-07-27T05:51:54.890Z,1.40
2022-07-27T06:02:03.068Z,1.20
2022-07-27T06:12:11.520Z,1.30
2022-07-27T06:22:21.478Z,1.30
2022-07-27T06:32:25.202Z,1.50
2022-07-27T06:42:29.125Z,1.20
2022-07-27T06:52:33.862Z,1.50
2022-07-27T07:02:50.645Z,1.50
2022-07-27T07:12:57.720Z,1.40
2022-07-27T07:23:02.690Z,1.90
2022-07-27T07:33:06.055Z,2.30
2022-07-27T07:43:13.458Z,2.10
2022-07-27T07:53:27.232Z,2.30
2022-07-27T08:03:45.000Z,2.30
2022-07-27T08:13:51.364Z,2.10
2022-07-27T08:23:55.068Z,2.10
2022-07-27T08:34:02.139Z,2.00
2022-07-27T08:44:27.997Z,2.30
2022-07-27T09:05:25.359Z,1.60
2022-07-27T09:15:34.672Z,1.90
2022-07-27T09:26:02.185Z,1.70
2022-07-27T09:36:12.477Z,1.90
2022-07-27T09:46:37.793Z,1.80
2022-07-27T09:56:44.407Z,1.80
2022-07-27T10:07:02.422Z,1.80
2022-07-27T10:17:08.054Z,1.90
2022-07-27T10:27:29.347Z,1.90
2022-07-27T10:37:35.054Z,1.90
2022-07-27T10:47:46.306Z,2.10
2022-07-27T10:57:49.602Z,2.30
2022-07-27T11:08:23.840Z,2.10
2022-07-27T11:18:16.287Z,1.60
2022-07-27T11:28:37.696Z,1.50
2022-07-27T11:38:53.555Z,1.40
2022-07-27T11:49:29.325Z,1.40
2022-07-27T11:59:39.622Z,1.60
2022-07-27T12:09:59.442Z,1.20
2022-07-27T12:20:07.703Z,1.50
2022-07-27T12:30:21.556Z,1.40
2022-07-27T12:40:24.949Z,1.40
2022-07-27T12:50:28.862Z,1.40
2022-07-27T13:00:34.218Z,1.30
2022-07-27T13:10:38.404Z,2.20
2022-07-27T13:20:44.429Z,1.60
2022-07-27T13:30:47.609Z,1.50
2022-07-27T13:40:57.170Z,1.50
2022-07-27T13:51:08.595Z,1.40
2022-07-27T14:01:13.317Z,1.20
2022-07-27T14:11:16.921Z,1.70
2022-07-27T14:21:21.674Z,1.30
2022-07-27T14:31:24.965Z,1.70
2022-07-27T14:41:31.810Z,1.40
2022-07-27T14:51:36.652Z,1.20
2022-07-27T15:02:30.570Z,1.50
2022-07-27T15:12:37.950Z,1.40
2022-07-27T15:22:41.601Z,1.50
2022-07-27T15:32:44.873Z,1.50
2022-07-27T15:42:49.823Z,1.40
2022-07-27T15:52:54.338Z,1.40
2022-07-27T16:02:57.560Z,1.40
2022-07-27T16:13:01.808Z,1.50
2022-07-27T16:23:17.723Z,1.50
2022-07-27T16:33:25.504Z,1.30
2022-07-27T16:43:37.453Z,1.30
2022-07-27T16:53:45.129Z,1.50
2022-07-27T17:03:49.186Z,1.40
2022-07-27T17:13:58.880Z,1.50
2022-07-27T17:24:09.226Z,1.40
2022-07-27T17:34:13.536Z,1.70
2022-07-27T17:44:16.718Z,1.70
2022-07-27T17:54:21.001Z,1.60
2022-07-27T18:04:25.619Z,1.60
2022-07-27T18:14:28.884Z,1.80
2022-07-27T18:24:35.805Z,1.90
2022-07-27T18:34:39.637Z,2.40
2022-07-27T18:44:44.912Z,2.10
2022-07-27T18:54:54.623Z,2.20
2022-07-27T19:05:00.733Z,2.20
2022-07-27T19:15:05.864Z,2.00
2022-07-27T19:25:09.310Z,2.30
2022-07-27T19:35:13.309Z,2.70
2022-07-27T19:45:44.483Z,2.40
2022-07-27T19:55:54.079Z,2.70
2022-07-27T20:06:02.689Z,4.00
2022-07-27T20:16:08.565Z,4.80
2022-07-27T20:26:12.630Z,3.20
2022-07-27T20:36:16.046Z,3.60
2022-07-27T20:46:20.210Z,2.90
2022-07-27T20:56:23.689Z,2.60
2022-07-27T21:31:09.917Z,2.10
2022-07-27T21:41:19.888Z,2.60
2022-07-27T21:51:26.826Z,2.60
2022-07-27T22:01:32.625Z,2.40
2022-07-27T22:11:40.010Z,2.40
2022-07-27T22:22:15.707Z,2.40
2022-07-27T22:32:22.035Z,2.50
2022-07-27T22:42:30.638Z,2.30
2022-07-27T22:53:23.876Z,2.30
2022-07-27T23:16:16.640Z,2.30
2022-07-27T23:49:13.191Z,2.50
2022-07-27T23:59:17.754Z,2.70
